sensor_id;sensor_type;location;lat;lon;timestamp;pressure;altitude;pressure_sealevel;temperature;humidity
4590;BME280;2307;48.448;9.216;2023-01-25T00:00:51;96872.00;;;1.87;100.00
4590;BME280;2307;48.448;9.216;2023-01-25T00:03:17;96859.41;;;1.82;100.00
4590;BME280;2307;48.448;9.216;2023-01-25T00:05:43;96857.66;;;1.73;100.00
4590;BME280;2307;48.448;9.216;2023-01-25T00:08:10;96853.00;;;1.77;100.00
4590;BME280;2307;48.448;9.216;2023-01-25T00:10:36;96849.28;;;1.79;100.00
4590;BME280;2307;48.448;9.216;2023-01-25T00:13:03;96847.25;;;1.73;100.00
4590;BME280;2307;48.448;9.216;2023-01-25T00:15:29;96838.81;;;1.89;100.00
4590;BME280;2307;48.448;9.216;2023-01-25T00:17:57;96839.16;;;1.76;100.00
4590;BME280;2307;48.448;9.216;2023-01-25T00:20:24;96832.03;;;1.69;100.00
4590;BME280;2307;48.448;9.216;2023-01-25T00:22:50;96846.84;;;1.68;100.00
4590;BME280;2307;48.448;9.216;2023-01-25T00:25:16;96848.59;;;1.77;100.00
4590;BME280;2307;48.448;9.216;2023-01-25T00:27:43;96841.22;;;1.73;100.00
4590;BME280;2307;48.448;9.216;2023-01-25T00:30:10;96847.91;;;1.75;100.00
4590;BME280;2307;48.448;9.216;2023-01-25T00:32:40;96847.66;;;1.69;100.00
4590;BME280;2307;48.448;9.216;2023-01-25T00:35:11;96843.81;;;1.73;100.00
4590;BME280;2307;48.448;9.216;2023-01-25T00:37:38;96837.13;;;1.70;100.00
4590;BME280;2307;48.448;9.216;2023-01-25T00:40:05;96822.06;;;1.64;100.00
4590;BME280;2307;48.448;9.216;2023-01-25T00:42:31;96823.81;;;1.73;100.00
4590;BME280;2307;48.448;9.216;2023-01-25T00:44:58;96834.31;;;1.81;100.00
4590;BME280;2307;48.448;9.216;2023-01-25T00:47:24;96820.81;;;1.68;100.00
4590;BME280;2307;48.448;9.216;2023-01-25T00:49:50;96815.03;;;1.74;100.00
4590;BME280;2307;48.448;9.216;2023-01-25T00:52:18;96819.97;;;1.77;100.00
4590;BME280;2307;48.448;9.216;2023-01-25T00:54:46;96814.16;;;1.83;100.00
4590;BME280;2307;48.448;9.216;2023-01-25T00:57:12;96814.47;;;1.80;100.00
4590;BME280;2307;48.448;9.216;2023-01-25T00:59:38;96819.44;;;1.74;100.00
4590;BME280;2307;48.448;9.216;2023-01-25T01:02:08;96821.56;;;1.78;100.00
4590;BME280;2307;48.448;9.216;2023-01-25T01:04:34;96824.63;;;1.74;100.00
4590;BME280;2307;48.448;9.216;2023-01-25T01:07:01;96820.25;;;1.74;100.00
4590;BME280;2307;48.448;9.216;2023-01-25T01:09:28;96822.94;;;1.82;100.00
4590;BME280;2307;48.448;9.216;2023-01-25T01:11:55;96819.66;;;1.80;100.00
4590;BME280;2307;48.448;9.216;2023-01-25T01:14:22;96814.50;;;1.71;100.00
4590;BME280;2307;48.448;9.216;2023-01-25T01:16:49;96813.69;;;1.70;100.00
4590;BME280;2307;48.448;9.216;2023-01-25T01:19:15;96818.16;;;1.78;100.00
4590;BME280;2307;48.448;9.216;2023-01-25T01:21:41;96815.88;;;1.65;100.00
4590;BME280;2307;48.448;9.216;2023-01-25T01:24:08;96817.25;;;1.69;100.00
4590;BME280;2307;48.448;9.216;2023-01-25T01:26:36;96813.69;;;1.70;100.00
4590;BME280;2307;48.448;9.216;2023-01-25T01:29:02;96823.53;;;1.76;100.00
4590;BME280;2307;48.448;9.216;2023-01-25T01:31:29;96823.53;;;1.76;100.00
4590;BME280;2307;48.448;9.216;2023-01-25T01:33:55;96821.00;;;1.84;100.00
4590;BME280;2307;48.448;9.216;2023-01-25T01:36:23;96821.28;;;1.81;100.00
4590;BME280;2307;48.448;9.216;2023-01-25T01:38:49;96819.25;;;1.75;100.00
4590;BME280;2307;48.448;9.216;2023-01-25T01:41:16;96813.34;;;1.83;100.00
4590;BME280;2307;48.448;9.216;2023-01-25T01:43:43;96817.59;;;1.84;100.00
4590;BME280;2307;48.448;9.216;2023-01-25T01:46:10;96812.09;;;1.87;100.00
4590;BME280;2307;48.448;9.216;2023-01-25T01:48:40;96815.28;;;1.81;100.00
4590;BME280;2307;48.448;9.216;2023-01-25T01:51:09;96805.59;;;1.91;100.00
4590;BME280;2307;48.448;9.216;2023-01-25T01:53:37;96819.09;;;1.86;100.00
4590;BME280;2307;48.448;9.216;2023-01-25T01:56:08;96823.19;;;1.89;100.00
4590;BME280;2307;48.448;9.216;2023-01-25T01:58:36;96821.00;;;1.84;100.00
4590;BME280;2307;48.448;9.216;2023-01-25T02:01:04;96819.63;;;1.90;100.00
4590;BME280;2307;48.448;9.216;2023-01-25T02:03:30;96818.50;;;1.92;100.00
4590;BME280;2307;48.448;9.216;2023-01-25T02:05:59;96816.84;;;1.91;100.00
4590;BME280;2307;48.448;9.216;2023-01-25T02:08:27;96802.94;;;2.00;100.00
4590;BME280;2307;48.448;9.216;2023-01-25T02:10:55;96802.94;;;2.00;100.00
4590;BME280;2307;48.448;9.216;2023-01-25T02:13:21;96809.25;;;1.98;100.00
4590;BME280;2307;48.448;9.216;2023-01-25T02:15:48;96803.53;;;1.94;100.00
4590;BME280;2307;48.448;9.216;2023-01-25T02:18:17;96802.56;;;1.95;100.00
4590;BME280;2307;48.448;9.216;2023-01-25T02:20:44;96802.16;;;1.90;100.00
4590;BME280;2307;48.448;9.216;2023-01-25T02:23:13;96801.63;;;1.96;100.00
4590;BME280;2307;48.448;9.216;2023-01-25T02:25:41;96803.94;;;1.99;100.00
4590;BME280;2307;48.448;9.216;2023-01-25T02:28:10;96812.81;;;1.79;100.00
4590;BME280;2307;48.448;9.216;2023-01-25T02:30:39;96813.88;;;1.86;100.00
4590;BME280;2307;48.448;9.216;2023-01-25T02:33:06;96808.47;;;1.70;100.00
4590;BME280;2307;48.448;9.216;2023-01-25T02:35:38;96803.84;;;1.64;100.00
4590;BME280;2307;48.448;9.216;2023-01-25T02:38:05;96801.09;;;1.66;100.00
4590;BME280;2307;48.448;9.216;2023-01-25T02:40:33;96805.69;;;1.54;100.00
4590;BME280;2307;48.448;9.216;2023-01-25T02:43:03;96804.69;;;1.65;100.00
4590;BME280;2307;48.448;9.216;2023-01-25T02:45:29;96795.78;;;1.57;100.00
4590;BME280;2307;48.448;9.216;2023-01-25T02:47:55;96797.66;;;1.65;100.00
4590;BME280;2307;48.448;9.216;2023-01-25T02:50:22;96798.44;;;1.75;100.00
4590;BME280;2307;48.448;9.216;2023-01-25T02:52:48;96798.94;;;1.61;100.00
4590;BME280;2307;48.448;9.216;2023-01-25T02:55:15;96795.22;;;1.64;100.00
4590;BME280;2307;48.448;9.216;2023-01-25T02:57:41;96797.56;;;1.57;100.00
4590;BME280;2307;48.448;9.216;2023-01-25T03:00:10;96799.50;;;1.55;100.00
4590;BME280;2307;48.448;9.216;2023-01-25T03:02:36;96790.78;;;1.74;100.00
4590;BME280;2307;48.448;9.216;2023-01-25T03:05:03;96781.19;;;1.74;100.00
4590;BME280;2307;48.448;9.216;2023-01-25T03:07:29;96791.72;;;1.73;100.00
4590;BME280;2307;48.448;9.216;2023-01-25T03:09:56;96783.38;;;1.69;100.00
4590;BME280;2307;48.448;9.216;2023-01-25T03:12:22;96778.88;;;1.71;100.00
4590;BME280;2307;48.448;9.216;2023-01-25T03:14:48;96778.09;;;1.61;100.00
4590;BME280;2307;48.448;9.216;2023-01-25T03:17:16;96787.09;;;1.49;100.00
4590;BME280;2307;48.448;9.216;2023-01-25T03:19:42;96786.19;;;1.31;100.00
4590;BME280;2307;48.448;9.216;2023-01-25T03:22:09;96791.53;;;1.29;100.00
4590;BME280;2307;48.448;9.216;2023-01-25T03:24:35;96782.03;;;1.38;100.00
4590;BME280;2307;48.448;9.216;2023-01-25T03:27:02;96774.31;;;1.46;100.00
4590;BME280;2307;48.448;9.216;2023-01-25T03:29:38;96770.56;;;1.31;100.00
4590;BME280;2307;48.448;9.216;2023-01-25T03:32:05;96762.63;;;1.32;100.00
4590;BME280;2307;48.448;9.216;2023-01-25T03:34:33;96765.56;;;1.47;100.00
4590;BME280;2307;48.448;9.216;2023-01-25T03:36:59;96760.16;;;1.58;100.00
4590;BME280;2307;48.448;9.216;2023-01-25T03:39:26;96755.38;;;1.53;100.00
4590;BME280;2307;48.448;9.216;2023-01-25T03:41:53;96753.97;;;1.59;100.00
4590;BME280;2307;48.448;9.216;2023-01-25T03:44:19;96761.41;;;1.54;100.00
4590;BME280;2307;48.448;9.216;2023-01-25T03:46:46;96752.94;;;1.52;100.00
4590;BME280;2307;48.448;9.216;2023-01-25T03:49:12;96744.84;;;1.55;100.00
4590;BME280;2307;48.448;9.216;2023-01-25T03:51:40;96743.84;;;1.56;100.00
4590;BME280;2307;48.448;9.216;2023-01-25T03:54:06;96744.31;;;1.69;100.00
4590;BME280;2307;48.448;9.216;2023-01-25T03:56:34;96740.25;;;1.67;100.00
4590;BME280;2307;48.448;9.216;2023-01-25T03:59:00;96733.16;;;1.59;100.00
4590;BME280;2307;48.448;9.216;2023-01-25T04:01:27;96744.31;;;1.51;100.00
4590;BME280;2307;48.448;9.216;2023-01-25T04:03:53;96735.09;;;1.57;100.00
4590;BME280;2307;48.448;9.216;2023-01-25T04:06:19;96742.47;;;1.62;100.00
4590;BME280;2307;48.448;9.216;2023-01-25T04:08:47;96742.69;;;1.68;100.00
4590;BME280;2307;48.448;9.216;2023-01-25T04:11:13;96739.00;;;1.71;100.00
4590;BME280;2307;48.448;9.216;2023-01-25T04:13:40;96740.59;;;1.72;100.00
4590;BME280;2307;48.448;9.216;2023-01-25T04:16:07;96735.25;;;1.73;100.00
4590;BME280;2307;48.448;9.216;2023-01-25T04:18:35;96729.09;;;1.74;100.00
4590;BME280;2307;48.448;9.216;2023-01-25T04:21:02;96723.78;;;1.66;100.00
4590;BME280;2307;48.448;9.216;2023-01-25T04:23:28;96726.19;;;1.77;100.00
4590;BME280;2307;48.448;9.216;2023-01-25T04:25:56;96727.28;;;1.75;100.00
4590;BME280;2307;48.448;9.216;2023-01-25T04:28:23;96731.00;;;1.72;100.00
4590;BME280;2307;48.448;9.216;2023-01-25T04:30:50;96737.22;;;1.71;100.00
4590;BME280;2307;48.448;9.216;2023-01-25T04:33:16;96736.97;;;1.65;100.00
4590;BME280;2307;48.448;9.216;2023-01-25T04:35:43;96738.75;;;1.64;100.00
4590;BME280;2307;48.448;9.216;2023-01-25T04:38:09;96735.56;;;1.70;100.00
4590;BME280;2307;48.448;9.216;2023-01-25T04:40:36;96745.03;;;1.71;100.00
4590;BME280;2307;48.448;9.216;2023-01-25T04:43:04;96743.97;;;1.64;100.00
4590;BME280;2307;48.448;9.216;2023-01-25T04:45:31;96742.69;;;1.68;100.00
4590;BME280;2307;48.448;9.216;2023-01-25T04:47:58;96743.31;;;1.52;100.00
4590;BME280;2307;48.448;9.216;2023-01-25T04:50:25;96750.44;;;1.33;100.00
4590;BME280;2307;48.448;9.216;2023-01-25T04:52:51;96750.22;;;1.44;100.00
4590;BME280;2307;48.448;9.216;2023-01-25T04:55:18;96743.66;;;1.40;100.00
4590;BME280;2307;48.448;9.216;2023-01-25T04:57:44;96743.00;;;1.38;100.00
4590;BME280;2307;48.448;9.216;2023-01-25T05:00:12;96744.69;;;1.29;100.00
4590;BME280;2307;48.448;9.216;2023-01-25T05:02:39;96736.94;;;1.20;100.00
4590;BME280;2307;48.448;9.216;2023-01-25T05:05:05;96734.78;;;1.05;100.00
4590;BME280;2307;48.448;9.216;2023-01-25T05:07:32;96728.31;;;1.19;100.00
4590;BME280;2307;48.448;9.216;2023-01-25T05:09:58;96722.53;;;0.98;100.00
4590;BME280;2307;48.448;9.216;2023-01-25T05:12:24;96724.44;;;0.96;100.00
4590;BME280;2307;48.448;9.216;2023-01-25T05:14:51;96723.44;;;1.06;100.00
4590;BME280;2307;48.448;9.216;2023-01-25T05:17:19;96721.91;;;1.14;100.00
4590;BME280;2307;48.448;9.216;2023-01-25T05:19:46;96722.47;;;1.08;100.00
4590;BME280;2307;48.448;9.216;2023-01-25T05:22:16;96721.66;;;1.07;100.00
4590;BME280;2307;48.448;9.216;2023-01-25T05:24:45;96712.44;;;0.85;100.00
4590;BME280;2307;48.448;9.216;2023-01-25T05:27:13;96708.56;;;0.89;100.00
4590;BME280;2307;48.448;9.216;2023-01-25T05:29:39;96714.56;;;0.99;100.00
4590;BME280;2307;48.448;9.216;2023-01-25T05:32:06;96717.59;;;0.95;100.00
4590;BME280;2307;48.448;9.216;2023-01-25T05:34:34;96720.38;;;1.11;100.00
4590;BME280;2307;48.448;9.216;2023-01-25T05:37:01;96717.06;;;1.19;100.00
4590;BME280;2307;48.448;9.216;2023-01-25T05:39:29;96714.50;;;1.09;100.00
4590;BME280;2307;48.448;9.216;2023-01-25T05:41:55;96720.44;;;1.01;100.00
4590;BME280;2307;48.448;9.216;2023-01-25T05:44:21;96708.50;;;1.08;100.00
4590;BME280;2307;48.448;9.216;2023-01-25T05:46:48;96719.97;;;1.16;100.00
4590;BME280;2307;48.448;9.216;2023-01-25T05:49:15;96717.06;;;1.19;100.00
4590;BME280;2307;48.448;9.216;2023-01-25T05:51:43;96713.94;;;1.15;100.00
4590;BME280;2307;48.448;9.216;2023-01-25T05:54:10;96717.97;;;1.00;100.00
4590;BME280;2307;48.448;9.216;2023-01-25T05:56:37;96715.06;;;1.13;100.00
4590;BME280;2307;48.448;9.216;2023-01-25T05:59:03;96708.72;;;1.15;100.00
4590;BME280;2307;48.448;9.216;2023-01-25T06:01:30;96707.25;;;1.13;100.00
4590;BME280;2307;48.448;9.216;2023-01-25T06:03:56;96709.25;;;1.19;100.00
4590;BME280;2307;48.448;9.216;2023-01-25T06:06:23;96717.06;;;1.19;100.00
4590;BME280;2307;48.448;9.216;2023-01-25T06:08:51;96719.91;;;1.25;100.00
4590;BME280;2307;48.448;9.216;2023-01-25T06:11:18;96723.56;;;1.05;100.00
4590;BME280;2307;48.448;9.216;2023-01-25T06:13:45;96714.56;;;0.99;100.00
4590;BME280;2307;48.448;9.216;2023-01-25T06:16:11;96716.28;;;1.08;100.00
4590;BME280;2307;48.448;9.216;2023-01-25T06:18:38;96709.56;;;1.16;100.00
4590;BME280;2307;48.448;9.216;2023-01-25T06:21:04;96708.78;;;1.05;100.00
4590;BME280;2307;48.448;9.216;2023-01-25T06:23:31;96713.69;;;1.08;100.00
4590;BME280;2307;48.448;9.216;2023-01-25T06:25:59;96706.91;;;0.98;100.00
4590;BME280;2307;48.448;9.216;2023-01-25T06:28:25;96713.16;;;1.05;100.00
4590;BME280;2307;48.448;9.216;2023-01-25T06:30:51;96707.66;;;1.08;100.00
4590;BME280;2307;48.448;9.216;2023-01-25T06:33:18;96712.28;;;1.24;100.00
4590;BME280;2307;48.448;9.216;2023-01-25T06:35:44;96712.63;;;1.91;100.00
4590;BME280;2307;48.448;9.216;2023-01-25T06:38:11;96709.34;;;1.54;100.00
4590;BME280;2307;48.448;9.216;2023-01-25T06:40:37;96705.22;;;1.34;100.00
4590;BME280;2307;48.448;9.216;2023-01-25T06:43:08;96717.97;;;1.27;100.00
4590;BME280;2307;48.448;9.216;2023-01-25T06:45:34;96713.75;;;1.26;100.00
4590;BME280;2307;48.448;9.216;2023-01-25T06:48:01;96716.00;;;1.12;100.00
4590;BME280;2307;48.448;9.216;2023-01-25T06:50:27;96715.44;;;1.18;100.00
4590;BME280;2307;48.448;9.216;2023-01-25T06:52:53;96716.44;;;1.07;100.00
4590;BME280;2307;48.448;9.216;2023-01-25T06:55:20;96711.78;;;1.11;100.00
4590;BME280;2307;48.448;9.216;2023-01-25T06:57:47;96706.19;;;1.05;100.00
4590;BME280;2307;48.448;9.216;2023-01-25T07:00:15;96700.81;;;1.17;100.00
4590;BME280;2307;48.448;9.216;2023-01-25T07:02:42;96695.34;;;1.10;100.00
4590;BME280;2307;48.448;9.216;2023-01-25T07:05:08;96703.00;;;1.12;100.00
4590;BME280;2307;48.448;9.216;2023-01-25T07:07:35;96690.16;;;1.10;100.00
4590;BME280;2307;48.448;9.216;2023-01-25T07:10:01;96688.69;;;1.25;100.00
4590;BME280;2307;48.448;9.216;2023-01-25T07:12:28;96693.38;;;1.22;100.00
4590;BME280;2307;48.448;9.216;2023-01-25T07:14:54;96697.38;;;1.16;100.00
4590;BME280;2307;48.448;9.216;2023-01-25T07:17:22;96692.00;;;1.18;100.00
4590;BME280;2307;48.448;9.216;2023-01-25T07:19:49;96691.47;;;1.24;100.00
4590;BME280;2307;48.448;9.216;2023-01-25T07:22:15;96678.81;;;1.29;100.00
4590;BME280;2307;48.448;9.216;2023-01-25T07:24:42;96678.88;;;1.19;100.00
4590;BME280;2307;48.448;9.216;2023-01-25T07:27:13;96671.97;;;1.28;100.00
4590;BME280;2307;48.448;9.216;2023-01-25T07:29:40;96669.06;;;1.31;100.00
4590;BME280;2307;48.448;9.216;2023-01-25T07:32:06;96662.31;;;1.38;100.00
4590;BME280;2307;48.448;9.216;2023-01-25T07:34:34;96664.31;;;1.26;100.00
4590;BME280;2307;48.448;9.216;2023-01-25T07:37:01;96668.28;;;1.21;100.00
4590;BME280;2307;48.448;9.216;2023-01-25T07:39:27;96661.06;;;1.15;100.00
4590;BME280;2307;48.448;9.216;2023-01-25T07:41:54;96658.81;;;1.29;100.00
4590;BME280;2307;48.448;9.216;2023-01-25T07:44:20;96652.13;;;1.27;100.00
4590;BME280;2307;48.448;9.216;2023-01-25T07:46:47;96659.25;;;1.25;100.00
4590;BME280;2307;48.448;9.216;2023-01-25T07:49:13;96656.94;;;1.22;100.00
4590;BME280;2307;48.448;9.216;2023-01-25T07:51:41;96657.72;;;1.67;100.00
4590;BME280;2307;48.448;9.216;2023-01-25T07:54:08;96651.66;;;1.14;100.00
4590;BME280;2307;48.448;9.216;2023-01-25T07:56:35;96659.47;;;1.14;100.00
4590;BME280;2307;48.448;9.216;2023-01-25T07:59:04;96670.03;;;1.02;100.00
4590;BME280;2307;48.448;9.216;2023-01-25T08:01:32;96658.75;;;1.12;100.00
4590;BME280;2307;48.448;9.216;2023-01-25T08:03:59;96661.91;;;1.15;100.00
4590;BME280;2307;48.448;9.216;2023-01-25T08:06:27;96670.69;;;1.14;100.00
4590;BME280;2307;48.448;9.216;2023-01-25T08:08:56;96676.72;;;1.05;100.00
4590;BME280;2307;48.448;9.216;2023-01-25T08:11:23;96677.56;;;1.33;100.00
4590;BME280;2307;48.448;9.216;2023-01-25T08:13:50;96670.00;;;1.39;100.00
4590;BME280;2307;48.448;9.216;2023-01-25T08:16:17;96670.91;;;1.21;100.00
4590;BME280;2307;48.448;9.216;2023-01-25T08:18:45;96678.22;;;1.35;100.00
4590;BME280;2307;48.448;9.216;2023-01-25T08:21:12;96674.13;;;1.32;100.00
4590;BME280;2307;48.448;9.216;2023-01-25T08:23:38;96669.66;;;1.25;100.00
4590;BME280;2307;48.448;9.216;2023-01-25T08:26:07;96664.03;;;1.29;100.00
4590;BME280;2307;48.448;9.216;2023-01-25T08:28:33;96664.84;;;1.30;100.00
4590;BME280;2307;48.448;9.216;2023-01-25T08:31:04;96657.47;;;1.43;100.00
4590;BME280;2307;48.448;9.216;2023-01-25T08:33:31;96660.78;;;1.45;100.00
4590;BME280;2307;48.448;9.216;2023-01-25T08:35:57;96665.09;;;1.54;100.00
4590;BME280;2307;48.448;9.216;2023-01-25T08:38:23;96648.81;;;1.52;100.00
4590;BME280;2307;48.448;9.216;2023-01-25T08:40:50;96649.91;;;1.49;100.00
4590;BME280;2307;48.448;9.216;2023-01-25T08:43:18;96656.97;;;1.57;100.00
4590;BME280;2307;48.448;9.216;2023-01-25T08:45:44;96648.66;;;1.71;100.00
4590;BME280;2307;48.448;9.216;2023-01-25T08:48:10;96657.66;;;1.77;100.00
4590;BME280;2307;48.448;9.216;2023-01-25T08:50:43;96650.66;;;1.77;100.00
4590;BME280;2307;48.448;9.216;2023-01-25T08:53:10;96638.59;;;1.76;100.00
4590;BME280;2307;48.448;9.216;2023-01-25T08:55:36;96644.47;;;1.78;100.00
4590;BME280;2307;48.448;9.216;2023-01-25T08:58:04;96636.91;;;1.67;100.00
4590;BME280;2307;48.448;9.216;2023-01-25T09:00:36;96630.41;;;1.53;100.00
4590;BME280;2307;48.448;9.216;2023-01-25T09:03:02;96627.38;;;1.58;100.00
4590;BME280;2307;48.448;9.216;2023-01-25T09:05:29;96619.03;;;1.54;100.00
4590;BME280;2307;48.448;9.216;2023-01-25T09:07:55;96623.88;;;1.49;100.00
4590;BME280;2307;48.448;9.216;2023-01-25T09:10:23;96625.22;;;1.53;100.00
4590;BME280;2307;48.448;9.216;2023-01-25T09:12:50;96627.81;;;1.36;100.00
4590;BME280;2307;48.448;9.216;2023-01-25T09:15:16;96629.00;;;1.41;100.00
4590;BME280;2307;48.448;9.216;2023-01-25T09:17:44;96625.06;;;1.37;100.00
4590;BME280;2307;48.448;9.216;2023-01-25T09:20:10;96630.25;;;1.20;100.00
4590;BME280;2307;48.448;9.216;2023-01-25T09:22:37;96628.59;;;1.19;100.00
4590;BME280;2307;48.448;9.216;2023-01-25T09:25:04;96633.44;;;1.14;100.00
4590;BME280;2307;48.448;9.216;2023-01-25T09:27:31;96635.00;;;1.24;100.00
4590;BME280;2307;48.448;9.216;2023-01-25T09:29:57;96629.22;;;1.30;100.00
4590;BME280;2307;48.448;9.216;2023-01-25T09:32:23;96626.19;;;1.35;100.00
4590;BME280;2307;48.448;9.216;2023-01-25T09:34:51;96628.84;;;1.43;100.00
4590;BME280;2307;48.448;9.216;2023-01-25T09:37:18;96628.28;;;1.49;100.00
4590;BME280;2307;48.448;9.216;2023-01-25T09:39:44;96628.56;;;1.64;100.00
4590;BME280;2307;48.448;9.216;2023-01-25T09:42:15;96632.19;;;1.53;100.00
4590;BME280;2307;48.448;9.216;2023-01-25T09:44:52;96635.84;;;1.60;100.00
4590;BME280;2307;48.448;9.216;2023-01-25T09:47:24;96631.44;;;1.43;100.00
4590;BME280;2307;48.448;9.216;2023-01-25T09:50:03;96631.97;;;1.29;100.00
4590;BME280;2307;48.448;9.216;2023-01-25T09:52:45;96634.50;;;1.56;100.00
4590;BME280;2307;48.448;9.216;2023-01-25T09:55:20;96632.44;;;1.77;100.00
4590;BME280;2307;48.448;9.216;2023-01-25T09:57:47;96631.91;;;1.74;100.00
4590;BME280;2307;48.448;9.216;2023-01-25T10:00:19;96625.59;;;1.76;100.00
4590;BME280;2307;48.448;9.216;2023-01-25T10:02:48;96613.81;;;1.90;100.00
4590;BME280;2307;48.448;9.216;2023-01-25T10:05:19;96620.44;;;1.84;100.00
4590;BME280;2307;48.448;9.216;2023-01-25T10:07:49;96614.47;;;1.92;100.00
4590;BME280;2307;48.448;9.216;2023-01-25T10:10:19;96615.34;;;2.00;100.00
4590;BME280;2307;48.448;9.216;2023-01-25T10:12:46;96614.91;;;2.05;100.00
4590;BME280;2307;48.448;9.216;2023-01-25T10:15:16;96601.06;;;2.04;100.00
4590;BME280;2307;48.448;9.216;2023-01-25T10:17:43;96603.47;;;1.80;100.00
4590;BME280;2307;48.448;9.216;2023-01-25T10:20:14;96608.84;;;1.79;100.00
4590;BME280;2307;48.448;9.216;2023-01-25T10:22:49;96611.22;;;1.72;100.00
4590;BME280;2307;48.448;9.216;2023-01-25T10:25:22;96605.44;;;1.60;100.00
4590;BME280;2307;48.448;9.216;2023-01-25T10:27:53;96599.69;;;1.75;100.00
4590;BME280;2307;48.448;9.216;2023-01-25T10:30:25;96601.72;;;1.45;100.00
4590;BME280;2307;48.448;9.216;2023-01-25T10:32:53;96606.69;;;1.39;100.00
4590;BME280;2307;48.448;9.216;2023-01-25T10:35:20;96604.69;;;1.33;100.00
4590;BME280;2307;48.448;9.216;2023-01-25T10:37:50;96594.78;;;1.54;100.00
4590;BME280;2307;48.448;9.216;2023-01-25T10:40:17;96593.25;;;1.61;100.00
4590;BME280;2307;48.448;9.216;2023-01-25T10:45:22;96586.44;;;1.68;100.00
4590;BME280;2307;48.448;9.216;2023-01-25T10:47:49;96583.47;;;1.63;100.00
4590;BME280;2307;48.448;9.216;2023-01-25T10:53:03;96571.47;;;1.88;100.00
4590;BME280;2307;48.448;9.216;2023-01-25T10:55:29;96578.09;;;1.82;100.00
4590;BME280;2307;48.448;9.216;2023-01-25T10:57:56;96560.72;;;1.91;100.00
4590;BME280;2307;48.448;9.216;2023-01-25T11:00:23;96564.84;;;1.93;100.00
4590;BME280;2307;48.448;9.216;2023-01-25T11:02:51;96561.03;;;1.88;100.00
4590;BME280;2307;48.448;9.216;2023-01-25T11:05:24;96552.47;;;1.95;100.00
4590;BME280;2307;48.448;9.216;2023-01-25T11:07:51;96555.38;;;1.92;100.00
4590;BME280;2307;48.448;9.216;2023-01-25T11:10:29;96552.09;;;1.90;100.00
4590;BME280;2307;48.448;9.216;2023-01-25T11:13:10;96558.72;;;2.02;100.00
4590;BME280;2307;48.448;9.216;2023-01-25T11:15:44;96550.41;;;1.81;100.00
4590;BME280;2307;48.448;9.216;2023-01-25T11:18:11;96555.09;;;1.78;100.00
4590;BME280;2307;48.448;9.216;2023-01-25T11:20:38;96546.59;;;1.93;100.00
4590;BME280;2307;48.448;9.216;2023-01-25T11:23:08;96545.72;;;2.10;100.00
4590;BME280;2307;48.448;9.216;2023-01-25T11:25:46;96549.50;;;1.90;100.00
4590;BME280;2307;48.448;9.216;2023-01-25T11:28:16;96544.00;;;1.93;100.00
4590;BME280;2307;48.448;9.216;2023-01-25T11:30:43;96549.31;;;1.84;100.00
4590;BME280;2307;48.448;9.216;2023-01-25T11:33:10;96542.06;;;1.95;100.00
4590;BME280;2307;48.448;9.216;2023-01-25T11:35:50;96541.44;;;2.01;100.00
4590;BME280;2307;48.448;9.216;2023-01-25T11:38:18;96538.81;;;1.76;100.00
4590;BME280;2307;48.448;9.216;2023-01-25T11:40:49;96532.88;;;1.66;100.00
4590;BME280;2307;48.448;9.216;2023-01-25T11:43:22;96531.41;;;1.89;100.00
4590;BME280;2307;48.448;9.216;2023-01-25T11:45:55;96525.38;;;1.88;100.00
4590;BME280;2307;48.448;9.216;2023-01-25T11:48:33;96519.97;;;1.82;100.00
4590;BME280;2307;48.448;9.216;2023-01-25T11:51:09;96518.91;;;1.67;100.00
4590;BME280;2307;48.448;9.216;2023-01-25T11:53:45;96511.91;;;1.67;100.00
4590;BME280;2307;48.448;9.216;2023-01-25T11:56:18;96508.88;;;1.54;100.00
4590;BME280;2307;48.448;9.216;2023-01-25T11:59:05;96516.34;;;1.49;100.00
4590;BME280;2307;48.448;9.216;2023-01-25T12:01:41;96500.13;;;1.55;100.00
4590;BME280;2307;48.448;9.216;2023-01-25T12:07:07;96496.09;;;1.60;100.00
4590;BME280;2307;48.448;9.216;2023-01-25T12:09:44;96486.91;;;1.74;100.00
4590;BME280;2307;48.448;9.216;2023-01-25T12:12:17;96485.91;;;1.75;100.00
4590;BME280;2307;48.448;9.216;2023-01-25T12:17:50;96475.34;;;1.77;100.00
4590;BME280;2307;48.448;9.216;2023-01-25T12:20:26;96467.78;;;1.66;100.00
4590;BME280;2307;48.448;9.216;2023-01-25T12:23:06;96462.13;;;1.70;100.00
4590;BME280;2307;48.448;9.216;2023-01-25T12:25:38;96454.97;;;1.72;100.00
4590;BME280;2307;48.448;9.216;2023-01-25T12:28:12;96451.66;;;1.62;100.00
4590;BME280;2307;48.448;9.216;2023-01-25T12:30:42;96446.91;;;1.83;100.00
4590;BME280;2307;48.448;9.216;2023-01-25T12:33:11;96431.84;;;1.69;100.00
4590;BME280;2307;48.448;9.216;2023-01-25T12:35:45;96430.56;;;1.73;100.00
4590;BME280;2307;48.448;9.216;2023-01-25T12:38:14;96433.19;;;1.73;100.00
4590;BME280;2307;48.448;9.216;2023-01-25T12:40:44;96423.16;;;1.86;100.00
4590;BME280;2307;48.448;9.216;2023-01-25T12:43:15;96426.28;;;1.90;100.00
4590;BME280;2307;48.448;9.216;2023-01-25T12:45:43;96412.38;;;1.81;100.00
4590;BME280;2307;48.448;9.216;2023-01-25T12:48:13;96414.03;;;1.90;100.00
4590;BME280;2307;48.448;9.216;2023-01-25T12:50:43;96408.47;;;1.77;100.00
4590;BME280;2307;48.448;9.216;2023-01-25T12:53:12;96412.59;;;1.62;100.00
4590;BME280;2307;48.448;9.216;2023-01-25T12:55:43;96398.31;;;1.66;100.00
4590;BME280;2307;48.448;9.216;2023-01-25T12:58:11;96395.13;;;1.80;100.00
4590;BME280;2307;48.448;9.216;2023-01-25T13:00:42;96390.38;;;1.76;100.00
4590;BME280;2307;48.448;9.216;2023-01-25T13:03:19;96388.13;;;1.81;100.00
4590;BME280;2307;48.448;9.216;2023-01-25T13:05:50;96376.19;;;1.70;100.00
4590;BME280;2307;48.448;9.216;2023-01-25T13:08:24;96379.56;;;1.63;100.00
4590;BME280;2307;48.448;9.216;2023-01-25T13:11:03;96379.06;;;1.59;100.00
4590;BME280;2307;48.448;9.216;2023-01-25T13:13:30;96374.06;;;1.66;100.00
4590;BME280;2307;48.448;9.216;2023-01-25T13:15:59;96370.59;;;1.57;100.00
4590;BME280;2307;48.448;9.216;2023-01-25T13:18:46;96361.41;;;1.71;100.00
4590;BME280;2307;48.448;9.216;2023-01-25T13:24:10;96357.38;;;1.84;100.00
4590;BME280;2307;48.448;9.216;2023-01-25T13:34:58;96344.03;;;1.87;100.00
4590;BME280;2307;48.448;9.216;2023-01-25T13:37:25;96346.16;;;1.84;100.00
4590;BME280;2307;48.448;9.216;2023-01-25T13:39:53;96345.91;;;1.61;100.00
4590;BME280;2307;48.448;9.216;2023-01-25T13:42:20;96339.88;;;1.60;100.00
4590;BME280;2307;48.448;9.216;2023-01-25T13:44:48;96334.53;;;1.70;100.00
4590;BME280;2307;48.448;9.216;2023-01-25T13:47:15;96328.69;;;1.76;100.00
4590;BME280;2307;48.448;9.216;2023-01-25T13:49:44;96331.00;;;1.79;100.00